Time;durP1;ratioP1;P1;durP2;ratioP2;P2;SDS_P1;SDS_P2;PMS_P1;PMS_P2;Temp;Humidity;BMP_temperature;BMP_pressure;BME280_temperature;BME280_humidity;BME280_pressure;Samples;Min_cycle;Max_cycle;Signal;HPM_P1;HPM_P2
2022/03/24 00:01:36;;;;;;;11.68;8.25;;;;;;;22.41;34.14;103097.56;4977560;28;20042;-69
2022/03/24 00:04:02;;;;;;;11.90;9.07;;;;;;;22.40;34.33;103096.72;5012917;28;20056;-69
2022/03/24 00:06:27;;;;;;;12.10;8.40;;;;;;;22.39;34.48;103100.34;4961979;28;20177;-68
2022/03/24 00:08:53;;;;;;;11.00;7.85;;;;;;;22.39;34.47;103097.72;5013551;28;20498;-68
2022/03/24 00:11:20;;;;;;;11.40;8.77;;;;;;;22.36;34.27;103105.97;4976339;28;20049;-69
2022/03/24 00:13:48;;;;;;;10.80;8.02;;;;;;;22.36;34.51;103094.50;5009879;28;20037;-68
2022/03/24 00:16:15;;;;;;;11.32;8.27;;;;;;;22.36;34.35;103102.47;4982614;28;20187;-68
2022/03/24 00:18:41;;;;;;;10.73;9.10;;;;;;;22.33;34.34;103100.94;5014772;28;20467;-68
2022/03/24 00:21:08;;;;;;;10.48;8.60;;;;;;;22.34;34.46;103102.63;4975389;28;20042;-69
2022/03/24 00:23:34;;;;;;;10.43;8.50;;;;;;;22.32;34.57;103101.91;5000983;28;20121;-69
2022/03/24 00:25:59;;;;;;;12.85;8.90;;;;;;;22.28;34.47;103098.72;5012707;28;20041;-68
2022/03/24 00:28:25;;;;;;;11.00;8.80;;;;;;;22.28;34.27;103101.38;4972405;28;20052;-68
2022/03/24 00:30:51;;;;;;;11.63;8.70;;;;;;;22.25;34.45;103096.31;5010034;28;20523;-68
2022/03/24 00:33:17;;;;;;;10.70;8.45;;;;;;;22.25;34.36;103092.81;4984970;28;20068;-68
2022/03/24 00:35:45;;;;;;;10.80;8.77;;;;;;;22.24;34.41;103094.63;5014956;28;20120;-68
2022/03/24 00:38:11;;;;;;;11.02;8.95;;;;;;;22.22;34.35;103088.66;4984506;28;20045;-68
2022/03/24 00:40:39;;;;;;;12.25;8.40;;;;;;;22.20;34.58;103081.81;5012863;28;20072;-68
2022/03/24 00:43:05;;;;;;;10.65;8.38;;;;;;;22.20;34.42;103082.63;4995624;28;20674;-68
2022/03/24 00:45:30;;;;;;;12.63;9.02;;;;;;;22.14;34.67;103077.06;5006944;28;20069;-68
2022/03/24 00:47:57;;;;;;;10.98;8.30;;;;;;;22.16;34.51;103080.41;4974141;28;20743;-69
2022/03/24 00:50:22;;;;;;;11.38;8.70;;;;;;;22.15;34.54;103082.25;5012838;28;20048;-68
2022/03/24 00:52:48;;;;;;;10.73;9.02;;;;;;;22.15;34.53;103076.94;4987994;28;20045;-68
2022/03/24 00:55:16;;;;;;;12.98;8.88;;;;;;;22.13;34.69;103073.59;4990885;28;20112;-68
2022/03/24 00:57:44;;;;;;;11.15;8.55;;;;;;;22.13;34.76;103075.41;5011535;28;20034;-69
2022/03/24 01:00:15;;;;;;;11.57;9.32;;;;;;;22.06;34.77;103071.63;4974305;28;20079;-68
2022/03/24 01:02:45;;;;;;;11.65;8.95;;;;;;;22.10;34.75;103075.69;5013601;28;20026;-69
2022/03/24 01:05:15;;;;;;;11.77;8.77;;;;;;;22.08;34.43;103080.25;4982759;28;20037;-69
2022/03/24 01:07:42;;;;;;;11.50;8.88;;;;;;;22.08;34.83;103077.63;5011698;28;20620;-68
2022/03/24 01:10:08;;;;;;;10.93;8.13;;;;;;;22.06;34.51;103069.78;4960418;28;20037;-69
2022/03/24 01:12:34;;;;;;;11.95;9.23;;;;;;;22.06;34.82;103072.44;5010656;28;20607;-68
2022/03/24 01:15:00;;;;;;;11.40;8.93;;;;;;;21.99;34.49;103066.84;4977357;28;20197;-68
2022/03/24 01:17:26;;;;;;;11.73;9.00;;;;;;;21.99;34.39;103068.66;5010116;28;20061;-68
2022/03/24 01:19:52;;;;;;;9.23;8.13;;;;;;;21.99;34.64;103072.16;4986061;28;20614;-68
2022/03/24 01:22:19;;;;;;;13.15;8.88;;;;;;;21.96;34.76;103061.00;5012408;28;20642;-70
2022/03/24 01:24:45;;;;;;;10.55;8.32;;;;;;;21.97;34.60;103057.34;4993954;28;20040;-68
2022/03/24 01:27:12;;;;;;;10.57;8.90;;;;;;;21.96;34.40;103061.81;4982818;28;20081;-69
2022/03/24 01:29:38;;;;;;;11.02;8.48;;;;;;;21.95;34.77;103068.09;5006346;28;20045;-69
2022/03/24 01:32:05;;;;;;;11.10;8.20;;;;;;;21.91;34.63;103053.47;4966921;28;20785;-69
2022/03/24 01:34:30;;;;;;;11.27;8.73;;;;;;;21.93;34.69;103058.63;5008284;28;20146;-68
2022/03/24 01:36:56;;;;;;;12.15;8.88;;;;;;;21.91;34.53;103061.41;4980696;28;26110;-69
2022/03/24 01:39:22;;;;;;;11.00;9.15;;;;;;;21.89;34.87;103062.50;5008994;28;20040;-68
2022/03/24 01:41:50;;;;;;;10.73;8.45;;;;;;;21.87;34.59;103060.00;4988640;28;20042;-68
2022/03/24 01:44:17;;;;;;;10.98;8.60;;;;;;;21.87;35.05;103057.34;4988976;28;20625;-68
2022/03/24 01:47:05;;;;;;;10.32;8.00;;;;;;;21.88;34.70;103058.19;5014018;28;20669;-69
2022/03/24 01:49:40;;;;;;;11.65;8.63;;;;;;;21.85;34.64;103059.31;4975539;28;20037;-68
2022/03/24 01:52:08;;;;;;;11.90;8.50;;;;;;;21.83;34.76;103053.31;5012100;28;20029;-68
2022/03/24 01:54:36;;;;;;;10.27;8.55;;;;;;;21.81;34.88;103049.13;4973842;28;20095;-69
2022/03/24 01:57:03;;;;;;;11.85;8.77;;;;;;;21.80;34.62;103053.59;5011941;28;20116;-69
2022/03/24 01:59:29;;;;;;;12.40;8.68;;;;;;;21.79;34.88;103045.78;4964634;28;20056;-68
2022/03/24 02:01:57;;;;;;;12.43;9.07;;;;;;;21.77;34.85;103037.13;5013693;28;20835;-68
2022/03/24 02:04:23;;;;;;;10.63;8.65;;;;;;;21.74;34.92;103038.25;4975964;28;20587;-68
2022/03/24 02:06:49;;;;;;;11.13;8.60;;;;;;;21.77;35.00;103043.25;5018598;28;20113;-68
2022/03/24 02:09:16;;;;;;;11.20;9.35;;;;;;;21.76;34.70;103038.09;4975493;28;20152;-68
2022/03/24 02:11:42;;;;;;;12.55;9.27;;;;;;;21.76;34.79;103035.44;5011043;28;20049;-69
2022/03/24 02:14:08;;;;;;;11.48;8.90;;;;;;;21.77;34.97;103037.13;4980750;28;20806;-69
2022/03/24 02:16:38;;;;;;;12.27;9.32;;;;;;;21.70;34.83;103031.50;4996269;28;20438;-68
2022/03/24 02:19:12;;;;;;;10.93;8.75;;;;;;;21.73;34.65;103027.78;5006992;28;20076;-68
2022/03/24 02:21:39;;;;;;;10.65;8.85;;;;;;;21.70;35.01;103029.69;4974586;28;20096;-68
2022/03/24 02:24:06;;;;;;;11.05;8.57;;;;;;;21.65;34.93;103018.69;5009452;28;20096;-69
2022/03/24 02:26:32;;;;;;;11.32;8.75;;;;;;;21.66;34.81;103023.00;4974781;28;20046;-69
2022/03/24 02:28:57;;;;;;;11.73;9.07;;;;;;;21.69;34.74;103038.63;5003913;28;20124;-68
2022/03/24 02:31:23;;;;;;;11.23;9.07;;;;;;;21.66;35.12;103024.81;4962499;28;20037;-69
2022/03/24 02:34:37;;;;;;;10.20;8.75;;;;;;;21.65;34.95;103031.09;5008048;28;20541;-68
2022/03/24 02:36:39;;;;;;;12.27;9.07;;;;;;;21.62;34.94;103018.97;4975633;28;20554;-69
2022/03/24 02:39:05;;;;;;;10.80;8.70;;;;;;;21.64;34.96;103017.00;5006210;28;20064;-68
2022/03/24 02:41:31;;;;;;;10.57;8.77;;;;;;;21.62;34.82;103018.97;4975388;28;20128;-69
2022/03/24 02:43:57;;;;;;;11.48;8.63;;;;;;;21.62;35.16;103018.13;5009185;28;20494;-68
2022/03/24 02:46:25;;;;;;;10.35;8.73;;;;;;;21.62;34.90;103018.97;4966634;28;20100;-70
2022/03/24 02:48:51;;;;;;;10.25;8.75;;;;;;;21.61;35.06;103019.94;5008357;28;20121;-68
2022/03/24 02:51:16;;;;;;;11.93;9.32;;;;;;;21.61;35.00;103021.75;5007203;28;20057;-68
2022/03/24 02:53:42;;;;;;;10.63;8.52;;;;;;;21.56;34.81;103010.75;4972696;28;20041;-68
2022/03/24 02:56:07;;;;;;;12.40;9.52;;;;;;;21.57;35.10;103017.72;5007816;28;20038;-69
2022/03/24 02:58:33;;;;;;;11.85;8.93;;;;;;;21.59;35.08;103015.75;4972900;28;20462;-69
2022/03/24 03:00:58;;;;;;;10.57;8.38;;;;;;;21.57;35.03;103017.72;5007747;28;20741;-69
2022/03/24 03:03:24;;;;;;;13.02;9.15;;;;;;;21.55;35.10;103006.41;4957807;28;20038;-69
2022/03/24 03:05:50;;;;;;;11.77;8.60;;;;;;;21.53;34.86;103009.19;5013541;28;20084;-68
2022/03/24 03:08:18;;;;;;;12.55;9.15;;;;;;;21.50;35.09;103013.91;4971368;28;20673;-69
2022/03/24 03:10:43;;;;;;;11.70;8.95;;;;;;;21.53;35.04;103011.00;5006052;28;20045;-69
2022/03/24 03:13:09;;;;;;;10.57;8.65;;;;;;;21.51;34.92;103012.94;4971796;28;20431;-69
2022/03/24 03:15:35;;;;;;;11.43;9.00;;;;;;;21.52;34.81;103012.81;5006410;28;20092;-70
2022/03/24 03:18:02;;;;;;;13.48;9.02;;;;;;;21.53;34.82;103013.63;4979850;28;20026;-68
2022/03/24 03:20:28;;;;;;;10.98;9.40;;;;;;;21.48;35.13;103008.75;4998395;28;20042;-70
2022/03/24 03:22:55;;;;;;;13.40;9.75;;;;;;;21.43;34.95;103008.34;5006122;28;20107;-69
2022/03/24 03:25:22;;;;;;;10.90;8.60;;;;;;;21.47;34.98;103016.84;4972043;28;20049;-69
2022/03/24 03:27:48;;;;;;;11.38;9.10;;;;;;;21.45;35.17;103017.00;5007154;28;20037;-69
2022/03/24 03:30:14;;;;;;;10.82;9.02;;;;;;;21.47;35.07;103019.50;4969002;28;20545;-69
2022/03/24 03:32:41;;;;;;;11.32;8.95;;;;;;;21.48;35.15;103016.72;5013630;28;20037;-69
2022/03/24 03:35:07;;;;;;;10.65;8.38;;;;;;;21.43;35.04;103018.94;4969972;28;20514;-69
2022/03/24 03:37:33;;;;;;;10.45;8.30;;;;;;;21.39;35.06;103018.38;5000939;28;20053;-69
2022/03/24 03:39:59;;;;;;;9.93;8.02;;;;;;;21.42;35.15;103019.94;4996842;28;20089;-70
2022/03/24 03:42:24;;;;;;;12.00;8.70;;;;;;;21.40;34.89;103019.22;4974775;28;20049;-69
2022/03/24 03:44:50;;;;;;;10.30;8.68;;;;;;;21.38;34.95;103013.22;5008834;28;20084;-69
2022/03/24 03:47:16;;;;;;;9.85;8.23;;;;;;;21.41;34.87;103023.56;4974197;28;20089;-69
2022/03/24 03:49:41;;;;;;;12.65;9.10;;;;;;;21.40;35.08;103016.56;5006894;28;20043;-69
2022/03/24 03:52:07;;;;;;;10.77;8.68;;;;;;;21.40;34.95;103017.41;4975792;28;20072;-69
2022/03/24 03:54:32;;;;;;;9.95;8.82;;;;;;;21.38;34.94;103019.38;4996022;28;20128;-69
2022/03/24 03:56:58;;;;;;;13.43;9.70;;;;;;;21.36;34.92;103017.81;5008084;28;20376;-69
2022/03/24 03:59:23;;;;;;;11.68;8.82;;;;;;;21.32;35.17;103014.59;4974491;28;20503;-69
2022/03/24 04:01:49;;;;;;;11.23;9.38;;;;;;;21.36;35.12;103018.66;5008340;28;20056;-69
2022/03/24 04:04:15;;;;;;;12.35;9.35;;;;;;;21.33;34.93;103016.25;4971788;28;20408;-69
2022/03/24 04:06:41;;;;;;;10.85;8.57;;;;;;;21.34;34.89;103017.09;5011064;28;20073;-69
2022/03/24 04:09:06;;;;;;;9.85;8.35;;;;;;;21.30;35.25;103016.53;4965352;28;20440;-70
2022/03/24 04:11:34;;;;;;;11.20;8.80;;;;;;;21.29;35.13;103014.03;5002025;28;20037;-69
2022/03/24 04:14:00;;;;;;;11.50;9.25;;;;;;;21.29;34.95;103017.53;4970720;28;20724;-69
2022/03/24 04:16:25;;;;;;;10.00;8.55;;;;;;;21.26;35.02;103011.66;5005651;28;20030;-69
2022/03/24 04:18:51;;;;;;;10.68;8.60;;;;;;;21.29;34.97;103020.16;4976046;28;20045;-69
2022/03/24 04:21:18;;;;;;;11.20;8.95;;;;;;;21.27;35.10;103016.00;5010921;28;20050;-69
2022/03/24 04:23:44;;;;;;;11.43;8.88;;;;;;;21.28;35.01;103023.78;4991058;28;20073;-69
2022/03/24 04:26:11;;;;;;;11.80;8.77;;;;;;;21.25;35.23;103016.13;4982317;28;20060;-69
2022/03/24 04:28:36;;;;;;;10.85;8.43;;;;;;;21.24;34.84;103009.16;5016266;28;20458;-69
2022/03/24 04:31:03;;;;;;;10.77;9.13;;;;;;;21.24;35.06;103011.81;4968455;28;20063;-69
2022/03/24 04:33:29;;;;;;;10.70;8.73;;;;;;;21.24;35.18;103013.59;5011775;28;20260;-69
2022/03/24 04:35:54;;;;;;;10.57;9.07;;;;;;;21.21;35.18;103013.88;4979177;28;20034;-69
2022/03/24 04:38:20;;;;;;;10.35;8.65;;;;;;;21.24;35.13;103013.59;5012718;28;20718;-69
2022/03/24 04:40:46;;;;;;;11.00;8.75;;;;;;;21.15;35.32;103009.09;4966455;28;20819;-69
2022/03/24 04:43:12;;;;;;;10.82;9.05;;;;;;;21.12;35.30;103010.19;5012610;28;20839;-69
2022/03/24 04:45:38;;;;;;;12.05;9.55;;;;;;;21.20;35.27;103017.50;5004302;28;20074;-69
2022/03/24 04:48:04;;;;;;;10.48;8.75;;;;;;;21.18;35.17;103012.28;4986654;28;20040;-69
2022/03/24 04:50:30;;;;;;;10.65;8.98;;;;;;;21.19;35.24;103016.66;5008466;28;20046;-69
2022/03/24 04:52:56;;;;;;;11.10;8.93;;;;;;;21.17;35.09;103015.09;4974706;28;20033;-69
2022/03/24 04:55:22;;;;;;;11.38;9.32;;;;;;;21.16;35.10;103014.25;5012321;28;20096;-69
2022/03/24 04:57:47;;;;;;;10.50;8.75;;;;;;;21.15;35.07;103012.56;4962589;28;21629;-69
2022/03/24 05:00:16;;;;;;;10.73;8.77;;;;;;;21.15;35.11;103020.53;5008472;28;20272;-69
2022/03/24 05:02:42;;;;;;;10.82;8.77;;;;;;;21.06;35.21;103005.44;4982378;28;20041;-68
2022/03/24 05:05:08;;;;;;;11.05;8.90;;;;;;;21.13;34.92;103018.00;5001322;28;20163;-69
2022/03/24 05:07:33;;;;;;;11.90;9.20;;;;;;;21.16;35.17;103026.66;5007995;28;20108;-69
2022/03/24 05:09:59;;;;;;;11.05;8.80;;;;;;;21.09;35.12;103016.59;4975293;28;20041;-69
2022/03/24 05:12:25;;;;;;;11.93;8.68;;;;;;;21.10;34.86;103022.75;5009997;28;20045;-68
2022/03/24 05:14:51;;;;;;;11.25;9.07;;;;;;;21.06;35.05;103016.06;4963953;28;20029;-69
2022/03/24 05:17:17;;;;;;;10.98;8.95;;;;;;;21.09;35.28;103018.41;5005584;28;20018;-69
2022/03/24 05:19:48;;;;;;;11.68;9.20;;;;;;;21.03;35.20;103011.88;4972762;28;20054;-69
2022/03/24 05:22:13;;;;;;;12.05;9.10;;;;;;;20.96;35.28;102997.47;5013219;28;20046;-69
2022/03/24 05:24:41;;;;;;;11.32;8.48;;;;;;;21.07;35.13;103015.91;4973156;28;20799;-69
2022/03/24 05:27:07;;;;;;;11.73;8.68;;;;;;;20.97;35.16;103007.09;5008329;28;20661;-69
2022/03/24 05:29:32;;;;;;;12.52;9.35;;;;;;;21.05;35.04;103020.50;4962681;28;20049;-69
2022/03/24 05:31:58;;;;;;;11.48;9.18;;;;;;;21.06;35.18;103018.69;5010226;28;20059;-69
2022/03/24 05:34:23;;;;;;;11.63;9.82;;;;;;;21.02;34.94;103023.44;5003537;28;20034;-69
2022/03/24 05:36:49;;;;;;;10.63;8.55;;;;;;;21.04;35.24;103020.66;4972777;28;20108;-69
2022/03/24 05:39:15;;;;;;;12.32;9.30;;;;;;;21.01;35.31;103021.75;5006372;28;20522;-69
2022/03/24 05:41:41;;;;;;;11.93;9.32;;;;;;;21.03;35.12;103024.28;4985300;28;20049;-69
2022/03/24 05:44:07;;;;;;;12.00;9.52;;;;;;;21.04;35.08;103025.94;5010049;28;20033;-69
2022/03/24 05:46:41;;;;;;;9.98;8.65;;;;;;;21.02;35.17;103025.25;4963997;28;20406;-69
2022/03/24 05:49:08;;;;;;;10.30;8.63;;;;;;;21.00;35.21;103022.69;5009487;28;20049;-69
2022/03/24 05:51:53;;;;;;;10.70;8.80;;;;;;;20.97;35.10;103020.31;4972439;28;20053;-69
2022/03/24 05:54:19;;;;;;;12.60;9.25;;;;;;;21.01;35.15;103026.22;5006642;28;20056;-69
2022/03/24 05:56:45;;;;;;;11.05;8.80;;;;;;;20.98;35.16;103019.34;4975258;28;20053;-69
2022/03/24 05:59:11;;;;;;;11.38;9.02;;;;;;;21.00;35.15;103029.81;5010846;28;20033;-69
2022/03/24 06:01:39;;;;;;;12.15;9.52;;;;;;;20.99;35.22;103022.84;4960580;28;20403;-69
2022/03/24 06:04:05;;;;;;;10.10;7.90;;;;;;;20.95;35.23;103027.56;5007452;28;20037;-69
2022/03/24 06:06:35;;;;;;;10.38;8.63;;;;;;;20.98;35.24;103026.47;5005801;28;20156;-69
2022/03/24 06:09:05;;;;;;;10.10;8.07;;;;;;;20.99;35.25;103028.13;4979760;28;20064;-70
2022/03/24 06:11:32;;;;;;;9.80;8.27;;;;;;;20.98;35.19;103035.25;5008825;28;20047;-69
2022/03/24 06:13:57;;;;;;;11.77;8.82;;;;;;;20.94;35.27;103031.19;4974702;28;20133;-69
2022/03/24 06:16:23;;;;;;;9.77;8.32;;;;;;;20.98;35.13;103026.47;5006199;28;20036;-69
2022/03/24 06:18:49;;;;;;;8.77;7.53;;;;;;;20.96;35.28;103023.94;4960783;28;20465;-69
2022/03/24 06:21:15;;;;;;;10.57;8.32;;;;;;;20.84;35.17;103006.50;5013548;28;20049;-69
2022/03/24 06:23:41;;;;;;;9.13;7.57;;;;;;;20.98;35.19;103018.50;4981192;28;20038;-69
2022/03/24 06:26:08;;;;;;;10.38;8.20;;;;;;;20.99;35.05;103026.31;5009036;28;20140;-69
2022/03/24 06:28:34;;;;;;;9.93;7.82;;;;;;;20.99;35.29;103031.63;4978084;28;20077;-69
2022/03/24 06:31:00;;;;;;;9.27;7.72;;;;;;;21.13;34.85;103031.25;5010613;28;20037;-69
2022/03/24 06:33:26;;;;;;;10.57;8.02;;;;;;;21.54;34.41;103037.34;4957950;28;20791;-69
2022/03/24 06:35:52;;;;;;;9.07;7.50;;;;;;;22.25;33.70;103035.28;5004165;28;20571;-69
2022/03/24 06:38:18;;;;;;;9.35;7.60;;;;;;;22.87;32.93;103033.03;5019987;28;20060;-69
2022/03/24 06:40:44;;;;;;;9.35;7.45;;;;;;;23.13;32.31;103039.31;4978337;28;20045;-69
2022/03/24 06:43:10;;;;;;;9.52;8.00;;;;;;;23.06;32.36;103037.41;5009990;28;20038;-69
2022/03/24 06:45:37;;;;;;;8.18;7.30;;;;;;;22.94;32.73;103030.59;4974393;28;20110;-69
2022/03/24 06:48:03;;;;;;;8.80;7.90;;;;;;;22.89;32.79;103039.88;5022381;28;20053;-69
2022/03/24 06:50:28;;;;;;;8.40;7.15;;;;;;;22.73;32.87;103034.31;4965734;28;20041;-70
2022/03/24 06:52:54;;;;;;;8.98;7.50;;;;;;;22.67;33.39;103028.75;5006648;28;20048;-69
2022/03/24 06:55:20;;;;;;;8.18;7.00;;;;;;;22.54;33.40;103034.38;4970735;28;20041;-69
2022/03/24 06:57:46;;;;;;;8.30;7.40;;;;;;;22.44;33.78;103033.56;5007923;28;20038;-70
2022/03/24 07:00:14;;;;;;;8.90;7.75;;;;;;;22.26;33.91;103031.66;4972112;28;20067;-69
2022/03/24 07:02:44;;;;;;;8.85;6.80;;;;;;;22.14;34.36;103040.75;5008660;28;20120;-70
2022/03/24 07:05:14;;;;;;;8.30;7.15;;;;;;;22.15;34.06;103038.94;4973083;28;22748;-69
2022/03/24 07:07:41;;;;;;;8.35;7.38;;;;;;;22.12;34.21;103033.94;5001552;28;20060;-69
2022/03/24 07:10:07;;;;;;;8.65;7.43;;;;;;;22.10;34.18;103034.06;5007702;28;20037;-70
2022/03/24 07:12:33;;;;;;;9.52;8.10;;;;;;;22.09;34.17;103044.81;4975071;28;20037;-69
2022/03/24 07:14:58;;;;;;;8.60;7.60;;;;;;;22.06;34.33;103047.72;5007870;28;20038;-69
2022/03/24 07:17:24;;;;;;;9.13;7.72;;;;;;;22.05;34.68;103048.72;4982946;28;20038;-69
2022/03/24 07:19:49;;;;;;;9.65;7.40;;;;;;;22.10;34.40;103036.72;5008575;28;20072;-70
2022/03/24 07:22:15;;;;;;;8.15;7.00;;;;;;;22.33;33.97;103042.53;4961390;28;20064;-69
2022/03/24 07:24:41;;;;;;;9.27;7.50;;;;;;;22.66;33.60;103046.50;5011674;28;20045;-70
2022/03/24 07:27:06;;;;;;;8.75;7.35;;;;;;;22.77;33.17;103040.16;4976968;28;20643;-69
2022/03/24 07:29:32;;;;;;;9.35;7.43;;;;;;;22.73;33.30;103041.44;5014891;28;20029;-69
2022/03/24 07:31:59;;;;;;;9.98;7.35;;;;;;;22.66;33.19;103043.00;4976240;28;20138;-70
2022/03/24 07:34:25;;;;;;;10.18;8.02;;;;;;;22.54;33.69;103047.66;5007794;28;20040;-69
2022/03/24 07:36:51;;;;;;;8.48;7.15;;;;;;;22.48;33.96;103042.94;4970582;28;20034;-69
2022/03/24 07:39:17;;;;;;;8.00;7.20;;;;;;;22.41;33.96;103045.31;4985884;28;20042;-69
2022/03/24 07:41:43;;;;;;;8.85;7.22;;;;;;;22.32;34.15;103051.47;5004579;28;20859;-68
2022/03/24 07:44:08;;;;;;;8.57;7.05;;;;;;;22.26;34.30;103047.59;4976455;28;20029;-68
2022/03/24 07:46:34;;;;;;;7.88;6.90;;;;;;;22.25;34.39;103055.66;5005775;28;20049;-69
2022/03/24 07:48:59;;;;;;;8.98;7.65;;;;;;;22.08;34.60;103028.03;4974851;28;20096;-69
2022/03/24 07:51:25;;;;;;;8.80;7.18;;;;;;;22.22;34.75;103053.31;5005239;28;20090;-68
2022/03/24 07:53:56;;;;;;;9.45;7.30;;;;;;;22.14;34.33;103034.63;4957330;28;20153;-69
2022/03/24 07:56:26;;;;;;;9.55;7.13;;;;;;;22.17;34.51;103051.09;5011834;28;20064;-68
2022/03/24 07:58:56;;;;;;;10.27;7.13;;;;;;;22.16;34.59;103059.19;4982863;28;20299;-69
2022/03/24 08:01:28;;;;;;;9.35;7.22;;;;;;;22.18;34.38;103052.75;5009368;28;20081;-69
2022/03/24 08:03:55;;;;;;;10.40;7.43;;;;;;;22.19;34.98;103061.56;4979156;28;20186;-68
2022/03/24 08:06:21;;;;;;;8.25;7.22;;;;;;;22.19;34.76;103058.91;5005212;28;20038;-69
2022/03/24 08:08:47;;;;;;;9.18;7.00;;;;;;;22.18;34.41;103060.72;4991159;28;20038;-69
2022/03/24 08:11:13;;;;;;;8.20;6.70;;;;;;;22.12;34.69;103063.13;4961159;28;20057;-68
2022/03/24 08:13:38;;;;;;;9.35;7.28;;;;;;;22.22;34.71;103062.09;5014701;28;20065;-69
2022/03/24 08:16:05;;;;;;;8.43;7.20;;;;;;;22.18;34.59;103054.56;4975729;28;20042;-69
2022/03/24 08:18:32;;;;;;;8.48;7.35;;;;;;;22.21;34.75;103059.59;5013536;28;20496;-69
2022/03/24 08:20:57;;;;;;;8.95;6.65;;;;;;;22.21;34.47;103064.91;4976740;28;20048;-68
2022/03/24 08:23:23;;;;;;;8.85;7.60;;;;;;;22.21;34.51;103070.22;5014671;28;20053;-68
2022/03/24 08:25:48;;;;;;;9.95;8.45;;;;;;;22.23;34.71;103070.91;4979281;28;20090;-68
2022/03/24 08:28:14;;;;;;;8.45;7.07;;;;;;;22.17;34.85;103069.66;5011780;28;20029;-68
2022/03/24 08:30:45;;;;;;;9.32;7.40;;;;;;;22.19;34.44;103073.00;4975150;28;20033;-69
2022/03/24 08:33:11;;;;;;;8.00;6.80;;;;;;;22.16;34.65;103067.97;5013658;28;20041;-69
2022/03/24 08:35:39;;;;;;;9.05;7.55;;;;;;;22.21;34.32;103071.03;5014211;28;20628;-69
2022/03/24 08:38:05;;;;;;;8.73;7.38;;;;;;;22.19;34.75;103072.16;4980189;28;20025;-69
2022/03/24 08:40:31;;;;;;;8.93;7.22;;;;;;;22.16;34.59;103065.34;5000275;28;20059;-69
2022/03/24 08:42:58;;;;;;;10.07;8.07;;;;;;;22.20;34.34;103076.50;4954827;28;20738;-69
2022/03/24 08:45:24;;;;;;;9.80;7.85;;;;;;;22.20;34.65;103074.69;5013001;28;20056;-69
2022/03/24 08:47:49;;;;;;;10.00;7.95;;;;;;;22.26;34.29;103083.88;4974699;28;20069;-69
2022/03/24 08:50:16;;;;;;;10.55;7.38;;;;;;;22.21;34.20;103068.41;5007569;28;20609;-69
2022/03/24 08:52:42;;;;;;;12.68;8.02;;;;;;;22.26;34.52;103078.56;4983704;28;20111;-69
2022/03/24 08:55:09;;;;;;;9.55;7.70;;;;;;;22.27;34.16;103072.31;5019668;28;20037;-69
2022/03/24 08:57:35;;;;;;;11.50;8.05;;;;;;;22.24;34.44;103077.88;4976439;28;20064;-69
2022/03/24 09:00:12;;;;;;;9.82;7.72;;;;;;;22.28;34.04;103080.13;4998647;28;20042;-70
2022/03/24 09:02:49;;;;;;;10.65;8.15;;;;;;;22.33;34.35;103074.38;5017853;28;20042;-69
2022/03/24 09:05:16;;;;;;;12.45;7.88;;;;;;;22.37;33.95;103074.94;4981634;28;20037;-68
2022/03/24 09:07:42;;;;;;;12.52;9.18;;;;;;;22.33;33.48;103071.75;5009012;28;20664;-69
2022/03/24 09:10:10;;;;;;;15.38;9.45;;;;;;;22.40;33.61;103080.78;4981570;28;20041;-68
2022/03/24 09:12:38;;;;;;;14.48;10.75;;;;;;;22.39;33.39;103086.25;5011350;28;20120;-68
2022/03/24 09:15:05;;;;;;;15.55;10.60;;;;;;;22.36;33.51;103089.19;4958719;28;20033;-69
2022/03/24 09:17:36;;;;;;;12.65;9.48;;;;;;;22.35;33.74;103085.69;5016264;28;20165;-69
2022/03/24 09:20:10;;;;;;;15.13;10.60;;;;;;;22.57;34.02;103095.16;4941463;28;21655;-65
2022/03/24 09:22:41;;;;;;;15.88;9.50;;;;;;;22.72;33.81;103088.41;5012873;28;20049;-71
2022/03/24 09:25:07;;;;;;;13.05;9.60;;;;;;;22.80;34.33;103088.53;4974121;28;20926;-70
2022/03/24 09:27:34;;;;;;;13.73;9.10;;;;;;;22.88;33.77;103085.19;5010929;28;20124;-68
2022/03/24 09:29:59;;;;;;;13.20;9.32;;;;;;;22.94;34.18;103087.25;4979984;28;21287;-67
2022/03/24 09:32:25;;;;;;;11.63;8.93;;;;;;;22.80;34.49;103085.03;5003779;28;20033;-62
2022/03/24 09:34:50;;;;;;;13.43;9.60;;;;;;;22.76;34.70;103091.59;4975815;28;20060;-63
2022/03/24 09:37:22;;;;;;;13.23;9.75;;;;;;;22.74;34.37;103090.91;4971526;28;20550;-63
2022/03/24 09:39:49;;;;;;;12.52;9.45;;;;;;;22.73;34.37;103098.06;5002034;28;20050;-63
2022/03/24 09:42:14;;;;;;;14.82;10.10;;;;;;;22.75;34.16;103087.28;4943410;28;20128;-66
2022/03/24 09:44:42;;;;;;;32.95;19.95;;;;;;;22.76;32.47;103089.78;5007138;28;20674;-66
2022/03/24 09:47:11;;;;;;;32.75;20.40;;;;;;;22.70;32.42;103086.88;4959656;28;20045;-64
2022/03/24 09:49:37;;;;;;;34.92;21.10;;;;;;;22.64;32.58;103090.13;5003466;28;20071;-67
2022/03/24 09:52:03;;;;;;;30.67;17.23;;;;;;;22.85;32.89;103088.97;4970288;28;20045;-68
2022/03/24 09:54:29;;;;;;;22.02;15.05;;;;;;;23.00;33.04;103088.50;4978216;28;20041;-74
2022/03/24 09:56:55;;;;;;;24.50;15.52;;;;;;;23.07;33.35;103101.03;4991260;28;20038;-73
2022/03/24 09:59:21;;;;;;;20.88;13.52;;;;;;;23.06;33.73;103091.41;4977891;28;20052;-68
2022/03/24 10:01:46;;;;;;;18.98;13.18;;;;;;;23.12;33.40;103092.63;4995409;28;20056;-69
2022/03/24 10:04:14;;;;;;;23.45;12.63;;;;;;;23.21;33.55;103091.75;4944535;28;20041;-69
2022/03/24 10:06:58;;;;;;;17.15;12.95;;;;;;;23.19;33.44;103093.72;5009389;28;20163;-69
2022/03/24 10:09:46;;;;;;;17.13;11.98;;;;;;;23.22;33.42;103093.41;4966825;28;20141;-69
2022/03/24 10:12:22;;;;;;;19.60;11.90;;;;;;;23.25;33.60;103093.13;5013029;28;20047;-69
2022/03/24 10:15:05;;;;;;;18.63;11.35;;;;;;;23.25;33.53;103085.16;4961554;28;20037;-70
2022/03/24 10:17:32;;;;;;;16.35;11.02;;;;;;;23.30;33.59;103090.00;5011989;28;20037;-68
2022/03/24 10:20:14;;;;;;;18.50;11.15;;;;;;;23.12;33.76;103088.13;4945360;28;20559;-64
2022/03/24 10:23:02;;;;;;;15.20;11.40;;;;;;;22.97;34.05;103084.28;5014904;28;20050;-64
2022/03/24 10:25:39;;;;;;;16.05;11.30;;;;;;;22.94;34.27;103091.72;4927682;28;20132;-63
2022/03/24 10:28:12;;;;;;;17.33;11.57;;;;;;;23.12;33.67;103088.13;5017916;28;20145;-67
2022/03/24 10:30:57;;;;;;;15.73;10.48;;;;;;;23.16;33.71;103086.88;4971184;28;20459;-74
2022/03/24 10:33:33;;;;;;;17.60;12.20;;;;;;;22.92;34.33;103090.03;5014157;28;20037;-66
2022/03/24 10:36:04;;;;;;;17.33;10.40;;;;;;;22.95;34.03;103088.06;4934620;28;20045;-67
2022/03/24 10:38:34;;;;;;;16.30;10.75;;;;;;;22.91;34.00;103088.38;5019665;28;20045;-67
2022/03/24 10:41:18;;;;;;;16.70;10.52;;;;;;;22.92;34.05;103090.03;4936865;28;25605;-70
2022/03/24 10:43:45;;;;;;;15.50;10.95;;;;;;;22.86;34.05;103087.16;5013994;28;20823;-70
2022/03/24 10:46:19;;;;;;;18.73;11.18;;;;;;;22.87;33.93;103076.38;4951558;28;21229;-66
2022/03/24 10:48:50;;;;;;;15.25;10.35;;;;;;;22.89;33.78;103081.53;5006851;28;20038;-66
2022/03/24 10:51:23;;;;;;;18.63;11.38;;;;;;;22.78;33.67;103063.06;4952633;28;21539;-65
2022/03/24 10:53:48;;;;;;;16.13;11.23;;;;;;;22.79;34.00;103070.91;5025167;28;20045;-66
2022/03/24 10:56:20;;;;;;;15.73;10.77;;;;;;;22.79;33.56;103070.06;4980886;28;20391;-66
2022/03/24 10:58:53;;;;;;;14.77;10.75;;;;;;;22.80;33.56;103071.72;4971835;28;20103;-66
2022/03/24 11:01:21;;;;;;;14.98;9.88;;;;;;;22.81;33.70;103071.63;5016372;28;20034;-66
2022/03/24 11:03:48;;;;;;;14.35;10.27;;;;;;;22.74;33.63;103069.66;4957740;28;20034;-66
2022/03/24 11:06:17;;;;;;;15.20;10.32;;;;;;;22.77;33.47;103075.53;5017703;28;20148;-65
2022/03/24 11:08:50;;;;;;;17.60;10.95;;;;;;;22.80;33.40;103074.38;4936546;28;20120;-66
2022/03/24 11:11:16;;;;;;;15.90;10.80;;;;;;;22.79;33.76;103067.41;5013968;28;20076;-67
2022/03/24 11:13:43;;;;;;;14.07;9.30;;;;;;;22.78;33.91;103071.06;4959544;28;20056;-66
2022/03/24 11:16:11;;;;;;;14.35;9.60;;;;;;;22.79;34.05;103070.91;5001625;28;20871;-67
2022/03/24 11:18:37;;;;;;;15.85;9.90;;;;;;;22.79;33.52;103073.56;4981244;28;20033;-66